createdAt,value
2023-05-03T00:01:50.655Z,9.05
2023-05-03T00:04:39.500Z,9.02
2023-05-03T00:07:28.068Z,8.97
2023-05-03T00:10:16.913Z,8.94
2023-05-03T00:13:06.942Z,8.85
2023-05-03T00:15:55.549Z,8.89
2023-05-03T00:18:44.002Z,8.86
2023-05-03T00:21:32.553Z,8.93
2023-05-03T00:24:20.956Z,8.90
2023-05-03T00:27:09.281Z,8.91
2023-05-03T00:29:59.070Z,8.92
2023-05-03T00:32:47.557Z,8.87
2023-05-03T00:35:36.045Z,8.86
2023-05-03T00:38:24.451Z,8.92
2023-05-03T00:41:13.825Z,8.88
2023-05-03T00:44:02.216Z,8.89
2023-05-03T00:46:52.271Z,8.86
2023-05-03T00:49:41.922Z,8.90
2023-05-03T00:52:31.085Z,8.90
2023-05-03T00:55:19.912Z,8.86
2023-05-03T00:58:08.339Z,8.77
2023-05-03T01:00:56.746Z,8.46
2023-05-03T01:03:46.839Z,8.59
2023-05-03T01:06:40.584Z,8.66
2023-05-03T01:09:33.907Z,8.73
2023-05-03T01:12:29.752Z,8.69
2023-05-03T01:15:24.290Z,8.67
2023-05-03T01:18:16.087Z,8.47
2023-05-03T01:21:06.524Z,8.53
2023-05-03T01:23:58.757Z,8.45
2023-05-03T01:26:48.689Z,8.33
2023-05-03T01:29:37.093Z,8.20
2023-05-03T01:32:30.964Z,8.32
2023-05-03T01:35:25.874Z,8.39
2023-05-03T01:38:14.616Z,8.43
2023-05-03T01:41:07.193Z,8.37
2023-05-03T01:43:57.480Z,8.42
2023-05-03T01:46:46.206Z,8.26
2023-05-03T01:49:35.205Z,8.32
2023-05-03T01:52:24.591Z,8.34
2023-05-03T01:55:12.950Z,8.40
2023-05-03T01:58:01.374Z,8.39
2023-05-03T02:00:51.220Z,8.45
2023-05-03T02:03:40.868Z,8.37
2023-05-03T02:06:29.350Z,8.34
2023-05-03T02:09:21.123Z,8.33
2023-05-03T02:12:10.006Z,8.32
2023-05-03T02:14:58.420Z,8.32
2023-05-03T02:17:49.722Z,8.20
2023-05-03T02:20:38.523Z,8.22
2023-05-03T02:23:26.887Z,8.19
2023-05-03T02:26:15.907Z,8.28
2023-05-03T02:29:04.358Z,8.27
2023-05-03T02:31:55.051Z,8.26
2023-05-03T02:34:46.082Z,8.25
2023-05-03T02:37:34.496Z,8.23
2023-05-03T02:40:28.485Z,8.27
2023-05-03T02:43:18.280Z,8.25
2023-05-03T02:46:07.068Z,8.23
2023-05-03T02:48:55.608Z,8.25
2023-05-03T02:51:45.927Z,8.28
2023-05-03T02:54:34.349Z,8.30
2023-05-03T02:57:28.467Z,8.30
2023-05-03T03:00:18.412Z,8.34
2023-05-03T03:03:07.053Z,8.36
2023-05-03T03:05:55.503Z,8.32
2023-05-03T03:08:46.608Z,8.34
2023-05-03T03:11:35.009Z,8.35
2023-05-03T03:14:23.507Z,8.37
2023-05-03T03:17:12.196Z,8.35
2023-05-03T03:20:02.368Z,8.37
2023-05-03T03:22:51.547Z,8.40
2023-05-03T03:25:42.584Z,8.42
2023-05-03T03:28:31.049Z,8.41
2023-05-03T03:31:23.315Z,8.39
2023-05-03T03:34:13.775Z,8.45
2023-05-03T03:37:02.926Z,8.42
2023-05-03T03:39:52.633Z,8.43
2023-05-03T03:42:42.399Z,8.44
2023-05-03T03:45:32.081Z,8.39
2023-05-03T03:48:21.219Z,8.35
2023-05-03T03:51:10.166Z,8.43
2023-05-03T03:54:04.807Z,8.44
2023-05-03T03:56:57.053Z,8.47
2023-05-03T03:59:46.989Z,8.45
2023-05-03T04:02:35.540Z,8.33
2023-05-03T04:05:24.146Z,8.42
2023-05-03T04:08:12.882Z,8.46
2023-05-03T04:11:03.512Z,8.44
2023-05-03T04:13:56.712Z,8.49
2023-05-03T04:16:47.155Z,8.47
2023-05-03T04:19:35.701Z,8.46
2023-05-03T04:22:24.817Z,8.46
2023-05-03T04:25:15.087Z,8.49
2023-05-03T04:28:06.891Z,8.51
2023-05-03T04:30:56.846Z,8.53
2023-05-03T04:33:49.064Z,8.55
2023-05-03T04:36:37.918Z,8.60
2023-05-03T04:39:26.515Z,8.58
2023-05-03T04:42:15.551Z,8.62
2023-05-03T04:45:08.040Z,8.66
2023-05-03T04:47:56.807Z,8.72
2023-05-03T04:50:46.611Z,8.73
2023-05-03T04:53:37.580Z,8.75
2023-05-03T04:56:35.699Z,8.82
2023-05-03T04:59:32.370Z,8.86
2023-05-03T05:02:21.120Z,8.79
2023-05-03T05:05:10.732Z,8.79
2023-05-03T05:08:00.640Z,8.89
2023-05-03T05:10:56.013Z,8.92
2023-05-03T05:13:48.922Z,8.96
2023-05-03T05:16:37.479Z,9.01
2023-05-03T05:19:26.221Z,9.05
2023-05-03T05:22:14.699Z,9.02
2023-05-03T05:25:10.362Z,9.05
2023-05-03T05:27:59.070Z,9.08
2023-05-03T05:30:47.514Z,9.13
2023-05-03T05:33:35.919Z,9.18
2023-05-03T05:36:25.164Z,9.15
2023-05-03T05:39:13.895Z,9.16
2023-05-03T05:42:05.052Z,9.12
2023-05-03T05:44:54.165Z,9.20
2023-05-03T05:47:43.879Z,9.16
2023-05-03T05:50:32.673Z,9.19
2023-05-03T05:53:25.295Z,9.16
2023-05-03T05:56:21.644Z,9.22
2023-05-03T05:59:11.502Z,9.30
2023-05-03T06:02:00.431Z,9.34
2023-05-03T06:04:49.694Z,9.40
2023-05-03T06:07:38.316Z,9.50
2023-05-03T06:10:26.757Z,9.52
2023-05-03T06:13:17.591Z,9.30
2023-05-03T06:16:09.291Z,9.45
2023-05-03T06:18:57.673Z,9.58
2023-05-03T06:21:46.254Z,9.61
2023-05-03T06:24:34.740Z,9.70
2023-05-03T06:27:23.252Z,9.77
2023-05-03T06:30:13.601Z,9.82
2023-05-03T06:33:04.473Z,9.93
2023-05-03T06:35:53.257Z,9.95
2023-05-03T06:38:41.988Z,10.00
2023-05-03T06:41:31.323Z,9.95
2023-05-03T06:44:19.821Z,9.97
2023-05-03T06:47:08.917Z,9.92
2023-05-03T06:49:58.939Z,10.09
2023-05-03T06:52:47.418Z,10.17
2023-05-03T06:55:35.913Z,10.20
2023-05-03T06:58:24.335Z,10.35
2023-05-03T07:01:12.896Z,10.33
2023-05-03T07:04:01.800Z,10.39
2023-05-03T07:06:56.578Z,10.43
2023-05-03T07:09:45.383Z,10.45
2023-05-03T07:12:33.827Z,10.49
2023-05-03T07:15:22.290Z,10.55
2023-05-03T07:18:10.813Z,10.63
2023-05-03T07:20:59.853Z,10.76
2023-05-03T07:23:49.568Z,10.76
2023-05-03T07:26:37.999Z,10.76
2023-05-03T07:29:27.289Z,10.77
2023-05-03T07:32:15.886Z,10.83
2023-05-03T07:35:04.879Z,10.76
2023-05-03T07:37:53.409Z,10.90
2023-05-03T07:40:43.617Z,10.90
2023-05-03T07:43:32.086Z,10.96
2023-05-03T07:46:20.681Z,10.95
2023-05-03T07:49:09.086Z,11.00
2023-05-03T07:51:57.430Z,11.07
2023-05-03T07:54:46.359Z,11.15
2023-05-03T07:57:36.284Z,11.23
2023-05-03T08:00:24.893Z,11.24
2023-05-03T08:03:13.462Z,11.33
2023-05-03T08:06:02.218Z,11.39
2023-05-03T08:08:50.610Z,11.44
2023-05-03T08:11:39.738Z,11.50
2023-05-03T08:14:30.670Z,11.59
2023-05-03T08:17:18.999Z,11.60
2023-05-03T08:20:08.920Z,11.44
2023-05-03T08:22:57.585Z,11.53
2023-05-03T08:25:46.024Z,11.62
2023-05-03T08:28:34.507Z,11.80
2023-05-03T08:31:24.313Z,11.75
2023-05-03T08:34:13.228Z,11.88
2023-05-03T08:37:01.711Z,11.96
2023-05-03T08:39:50.221Z,12.06
2023-05-03T08:42:42.640Z,12.09
2023-05-03T08:45:34.103Z,12.22
2023-05-03T08:48:24.177Z,12.32
2023-05-03T08:51:12.922Z,12.44
2023-05-03T08:54:01.425Z,12.44
2023-05-03T08:56:50.030Z,12.51
2023-05-03T08:59:48.031Z,12.20
2023-05-03T09:02:39.032Z,12.43
2023-05-03T09:05:38.782Z,12.58
2023-05-03T09:08:28.127Z,12.66
2023-05-03T09:11:27.725Z,12.68
2023-05-03T09:14:18.179Z,12.81
2023-05-03T09:17:15.385Z,12.93
2023-05-03T09:20:04.159Z,12.91
2023-05-03T09:22:54.329Z,13.05
2023-05-03T09:25:47.616Z,12.65
2023-05-03T09:28:42.343Z,12.96
2023-05-03T09:31:32.936Z,13.18
2023-05-03T09:34:24.646Z,13.12
2023-05-03T09:37:14.158Z,13.34
2023-05-03T09:40:10.254Z,13.36
2023-05-03T09:43:09.206Z,13.49
2023-05-03T09:46:09.640Z,13.60
2023-05-03T09:48:58.384Z,13.58
2023-05-03T09:51:46.955Z,13.43
2023-05-03T09:54:36.460Z,13.77
2023-05-03T09:57:27.278Z,13.92
2023-05-03T10:00:17.272Z,14.02
2023-05-03T10:03:09.728Z,14.13
2023-05-03T10:06:00.743Z,14.26
2023-05-03T10:08:54.374Z,14.48
2023-05-03T10:11:44.965Z,14.52
2023-05-03T10:14:35.099Z,14.53
2023-05-03T10:17:43.522Z,14.63
2023-05-03T10:20:39.233Z,14.77
2023-05-03T10:23:27.555Z,14.63
2023-05-03T10:26:17.176Z,14.22
2023-05-03T10:29:07.347Z,14.52
2023-05-03T10:31:57.275Z,14.71
2023-05-03T10:34:46.534Z,14.77
2023-05-03T10:37:36.132Z,14.90
2023-05-03T10:40:25.031Z,14.63
2023-05-03T10:43:43.732Z,14.46
2023-05-03T10:46:34.842Z,14.77
2023-05-03T10:49:26.562Z,14.81
2023-05-03T10:52:47.084Z,14.69
2023-05-03T10:55:35.970Z,14.48
2023-05-03T10:58:24.448Z,14.65
2023-05-03T11:01:14.676Z,14.57
2023-05-03T11:04:08.896Z,14.59
2023-05-03T11:06:59.508Z,14.64
2023-05-03T11:09:48.011Z,14.72
2023-05-03T11:12:36.566Z,14.72
2023-05-03T11:15:24.944Z,14.79
2023-05-03T11:18:13.478Z,14.86
2023-05-03T11:21:02.401Z,14.93
2023-05-03T11:23:52.154Z,15.00
2023-05-03T11:26:40.948Z,14.97
2023-05-03T11:29:29.574Z,14.86
2023-05-03T11:32:19.434Z,14.84
2023-05-03T11:35:08.480Z,15.05
2023-05-03T11:37:56.937Z,15.12
2023-05-03T11:40:46.737Z,15.21
2023-05-03T11:43:35.169Z,15.22
2023-05-03T11:46:25.334Z,15.10
2023-05-03T11:49:19.109Z,15.21
2023-05-03T11:52:08.003Z,15.00
2023-05-03T11:54:57.483Z,15.26
2023-05-03T11:57:47.418Z,15.39
2023-05-03T12:00:37.818Z,15.45
2023-05-03T12:03:31.682Z,15.54
2023-05-03T12:06:22.064Z,15.47
2023-05-03T12:09:16.094Z,15.43
2023-05-03T12:12:07.028Z,15.50
2023-05-03T12:15:02.029Z,15.67
2023-05-03T12:17:59.564Z,15.75
2023-05-03T12:21:30.121Z,15.82
2023-05-03T12:24:06.703Z,15.97
2023-05-03T12:26:57.354Z,16.17
2023-05-03T12:29:47.409Z,16.24
2023-05-03T12:32:39.286Z,16.39
2023-05-03T12:35:28.589Z,16.44
2023-05-03T12:38:18.069Z,16.66
2023-05-03T12:41:09.015Z,16.67
2023-05-03T12:44:00.440Z,16.60
2023-05-03T12:49:45.660Z,16.52
2023-05-03T12:52:38.143Z,16.69
2023-05-03T12:55:28.639Z,16.95
2023-05-03T13:01:37.992Z,17.17
2023-05-03T13:04:54.940Z,17.41
2023-05-03T13:07:32.701Z,17.46
2023-05-03T13:10:29.659Z,17.34
2023-05-03T13:13:18.474Z,17.35
2023-05-03T13:16:07.973Z,17.36
2023-05-03T13:18:56.704Z,17.41
2023-05-03T13:21:45.067Z,17.47
2023-05-03T13:24:35.190Z,17.47
2023-05-03T13:27:23.559Z,17.38
2023-05-03T13:30:12.525Z,17.46
2023-05-03T13:33:01.024Z,17.61
2023-05-03T13:35:49.461Z,17.77
2023-05-03T13:38:38.175Z,17.69
2023-05-03T13:41:27.915Z,17.68
2023-05-03T13:44:16.812Z,17.85
2023-05-03T13:47:05.254Z,17.91
2023-05-03T13:49:56.436Z,17.85
2023-05-03T13:52:46.038Z,18.14
2023-05-03T13:55:34.424Z,18.21
2023-05-03T13:58:24.214Z,18.35
2023-05-03T14:01:12.638Z,18.41
2023-05-03T14:04:01.172Z,18.26
2023-05-03T14:06:49.616Z,18.48
2023-05-03T14:09:39.645Z,18.32
2023-05-03T14:12:28.358Z,18.37
2023-05-03T14:15:18.903Z,18.19
2023-05-03T14:18:07.936Z,18.39
2023-05-03T14:20:57.163Z,18.30
2023-05-03T14:23:46.092Z,18.36
2023-05-03T14:26:34.960Z,18.43
2023-05-03T14:29:23.592Z,18.43
2023-05-03T14:32:13.549Z,18.52
2023-05-03T14:35:02.041Z,18.65
2023-05-03T14:37:50.403Z,18.71
2023-05-03T14:40:38.796Z,18.84
2023-05-03T14:43:28.376Z,18.97
2023-05-03T14:46:16.794Z,19.05
2023-05-03T14:49:07.133Z,19.02
2023-05-03T14:51:55.708Z,19.03
2023-05-03T14:54:44.682Z,18.88
2023-05-03T14:57:33.835Z,18.57
2023-05-03T15:00:22.358Z,18.43
2023-05-03T15:03:12.308Z,18.52
2023-05-03T15:06:02.303Z,18.74
2023-05-03T15:08:51.432Z,18.84
2023-05-03T15:11:39.946Z,19.10
2023-05-03T15:14:28.497Z,19.40
2023-05-03T15:17:16.975Z,19.62
2023-05-03T15:20:06.830Z,19.79
2023-05-03T15:22:56.815Z,19.95
2023-05-03T15:25:45.348Z,20.34
2023-05-03T15:28:33.827Z,20.40
2023-05-03T15:31:22.461Z,20.33
2023-05-03T15:34:12.466Z,20.57
2023-05-03T15:37:01.001Z,20.77
2023-05-03T15:39:51.005Z,20.69
2023-05-03T15:42:39.670Z,20.51
2023-05-03T15:45:28.504Z,20.45
2023-05-03T15:48:16.987Z,20.99
2023-05-03T15:51:05.827Z,20.89
2023-05-03T15:53:54.459Z,20.83
2023-05-03T15:56:47.276Z,20.42
2023-05-03T15:59:36.143Z,19.82
2023-05-03T16:02:24.704Z,20.04
2023-05-03T16:05:13.579Z,19.71
2023-05-03T16:08:02.051Z,19.75
2023-05-03T16:10:51.438Z,19.76
2023-05-03T16:13:41.200Z,19.86
2023-05-03T16:16:29.597Z,19.89
2023-05-03T16:19:18.086Z,19.67
2023-05-03T16:22:06.717Z,19.54
2023-05-03T16:24:55.094Z,19.30
2023-05-03T16:27:43.520Z,19.33
2023-05-03T16:30:33.698Z,19.11
2023-05-03T16:33:22.260Z,19.08
2023-05-03T16:36:10.827Z,18.90
2023-05-03T16:38:59.291Z,18.72
2023-05-03T16:41:47.712Z,18.75
2023-05-03T16:44:36.832Z,18.63
2023-05-03T16:47:27.348Z,18.62
2023-05-03T16:50:17.699Z,18.60
2023-05-03T16:53:06.101Z,18.47
2023-05-03T16:55:55.081Z,18.35
2023-05-03T16:58:43.625Z,18.08
2023-05-03T17:01:32.015Z,18.10
2023-05-03T17:04:22.626Z,17.89
2023-05-03T17:07:11.007Z,17.79
2023-05-03T17:09:59.443Z,17.58
2023-05-03T17:12:48.300Z,17.42
2023-05-03T17:15:37.433Z,17.49
2023-05-03T17:18:26.028Z,17.44
2023-05-03T17:21:16.106Z,17.46
2023-05-03T17:24:04.713Z,17.36
2023-05-03T17:26:55.165Z,17.26
2023-05-03T17:29:44.291Z,17.37
2023-05-03T17:32:33.200Z,17.15
2023-05-03T17:35:21.758Z,17.07
2023-05-03T17:38:11.548Z,17.18
2023-05-03T17:41:04.920Z,17.10
2023-05-03T17:43:53.761Z,17.11
2023-05-03T17:46:43.049Z,16.98
2023-05-03T17:49:33.354Z,17.02
2023-05-03T17:52:22.029Z,17.00
2023-05-03T17:55:12.227Z,16.93
2023-05-03T17:58:00.808Z,16.77
2023-05-03T18:00:49.458Z,16.47
2023-05-03T18:03:38.495Z,16.58
2023-05-03T18:06:28.074Z,16.40
2023-05-03T18:09:16.852Z,16.39
2023-05-03T18:12:07.356Z,16.33
2023-05-03T18:14:59.506Z,16.17
2023-05-03T18:17:48.383Z,16.18
2023-05-03T18:20:36.954Z,16.12
2023-05-03T18:23:25.304Z,16.04
2023-05-03T18:26:14.264Z,15.73
2023-05-03T18:29:04.181Z,15.87
2023-05-03T18:31:54.764Z,15.89
2023-05-03T18:34:43.293Z,15.82
2023-05-03T18:37:31.649Z,15.71
2023-05-03T18:40:20.588Z,15.72
2023-05-03T18:43:09.064Z,15.61
2023-05-03T18:45:58.815Z,15.68
2023-05-03T18:48:47.541Z,15.64
2023-05-03T18:51:36.006Z,15.63
2023-05-03T18:54:24.343Z,15.67
2023-05-03T18:57:13.262Z,15.68
2023-05-03T19:00:01.855Z,15.67
2023-05-03T19:02:53.020Z,15.65
2023-05-03T19:05:41.432Z,15.54
2023-05-03T19:08:29.787Z,15.44
2023-05-03T19:11:18.465Z,15.39
2023-05-03T19:14:06.968Z,15.29
2023-05-03T19:16:56.072Z,15.27
2023-05-03T19:19:45.960Z,15.21
2023-05-03T19:22:34.476Z,15.16
2023-05-03T19:25:23.047Z,15.13
2023-05-03T19:28:11.794Z,15.11
2023-05-03T19:31:04.117Z,15.08
2023-05-03T19:33:52.803Z,15.04
2023-05-03T19:36:42.724Z,14.99
2023-05-03T19:39:32.874Z,14.90
2023-05-03T19:42:21.395Z,14.83
2023-05-03T19:45:10.999Z,14.75
2023-05-03T19:47:59.555Z,14.65
2023-05-03T19:50:47.934Z,14.62
2023-05-03T19:53:38.017Z,14.58
2023-05-03T19:56:26.544Z,14.52
2023-05-03T19:59:15.019Z,14.46
2023-05-03T20:02:03.553Z,14.43
2023-05-03T20:04:52.064Z,14.30
2023-05-03T20:07:40.443Z,14.27
2023-05-03T20:10:35.440Z,14.23
2023-05-03T20:13:25.883Z,14.13
2023-05-03T20:16:14.314Z,14.09
2023-05-03T20:19:02.838Z,14.01
2023-05-03T20:21:51.455Z,13.95
2023-05-03T20:24:39.827Z,13.92
2023-05-03T20:27:29.674Z,13.86
2023-05-03T20:30:18.184Z,13.83
2023-05-03T20:33:06.656Z,13.79
2023-05-03T20:35:55.050Z,13.73
2023-05-03T20:38:43.484Z,13.73
2023-05-03T20:41:32.302Z,13.70
2023-05-03T20:44:22.034Z,13.62
2023-05-03T20:47:10.501Z,13.56
2023-05-03T20:49:58.968Z,13.51
2023-05-03T20:52:47.878Z,13.49
2023-05-03T20:55:36.379Z,13.48
2023-05-03T20:58:24.960Z,13.40
2023-05-03T21:01:14.790Z,13.33
2023-05-03T21:04:04.072Z,13.30
2023-05-03T21:06:52.448Z,13.28
2023-05-03T21:09:42.065Z,13.27
2023-05-03T21:12:30.469Z,13.24
2023-05-03T21:15:19.039Z,13.25
2023-05-03T21:18:08.924Z,13.22
2023-05-03T21:20:57.417Z,13.19
2023-05-03T21:23:46.055Z,13.15
2023-05-03T21:26:34.550Z,13.12
2023-05-03T21:29:23.003Z,13.03
2023-05-03T21:32:11.418Z,12.95
2023-05-03T21:35:01.879Z,12.90
2023-05-03T21:37:50.228Z,12.82
2023-05-03T21:40:38.720Z,12.73
2023-05-03T21:43:27.222Z,12.70
2023-05-03T21:46:15.765Z,12.66
2023-05-03T21:49:04.394Z,12.60
2023-05-03T21:51:54.205Z,12.56
2023-05-03T21:54:42.838Z,12.49
2023-05-03T21:57:32.978Z,12.47
2023-05-03T22:00:22.521Z,12.45
2023-05-03T22:03:11.143Z,12.45
2023-05-03T22:05:59.656Z,12.36
2023-05-03T22:08:49.436Z,12.23
2023-05-03T22:11:37.992Z,12.19
2023-05-03T22:14:26.456Z,12.22
2023-05-03T22:17:14.896Z,12.16
2023-05-03T22:20:03.646Z,12.09
2023-05-03T22:22:52.447Z,12.06
2023-05-03T22:25:42.476Z,12.03
2023-05-03T22:28:30.846Z,11.99
2023-05-03T22:31:19.245Z,11.97
2023-05-03T22:34:07.875Z,11.92
2023-05-03T22:36:56.436Z,11.79
2023-05-03T22:39:44.810Z,11.75
2023-05-03T22:42:34.541Z,11.67
2023-05-03T22:45:22.927Z,11.62
2023-05-03T22:48:11.378Z,11.66
2023-05-03T22:51:00.162Z,11.64
2023-05-03T22:53:48.579Z,11.56
2023-05-03T22:56:37.557Z,11.48
2023-05-03T22:59:27.427Z,11.41
2023-05-03T23:02:16.444Z,11.36
2023-05-03T23:05:05.239Z,11.36
2023-05-03T23:07:53.787Z,11.32
2023-05-03T23:10:42.241Z,11.28
2023-05-03T23:13:30.651Z,11.26
2023-05-03T23:16:21.432Z,11.24
2023-05-03T23:19:09.957Z,11.19
2023-05-03T23:21:58.317Z,11.11
2023-05-03T23:24:46.652Z,11.05
2023-05-03T23:27:35.029Z,11.05
2023-05-03T23:30:23.672Z,11.05
2023-05-03T23:33:13.910Z,11.03
2023-05-03T23:36:02.837Z,10.93
2023-05-03T23:38:51.345Z,10.92
2023-05-03T23:41:39.773Z,10.88
2023-05-03T23:44:42.226Z,10.88
2023-05-03T23:47:36.722Z,10.77
2023-05-03T23:50:26.642Z,10.80
2023-05-03T23:53:15.106Z,10.82
2023-05-03T23:56:03.490Z,10.80
2023-05-03T23:58:51.841Z,10.79
